createdAt,value
2022-11-02T00:02:00.252Z,14.44
2022-11-02T00:04:28.598Z,15.41
2022-11-02T00:06:56.831Z,14.48
2022-11-02T00:09:25.002Z,14.53
2022-11-02T00:11:53.217Z,14.50
2022-11-02T00:14:21.512Z,13.80
2022-11-02T00:16:49.834Z,14.17
2022-11-02T00:19:19.674Z,14.99
2022-11-02T00:21:47.977Z,15.12
2022-11-02T00:24:16.514Z,14.55
2022-11-02T00:26:44.687Z,15.00
2022-11-02T00:29:12.897Z,14.57
2022-11-02T00:31:41.091Z,14.55
2022-11-02T00:34:09.263Z,14.55
2022-11-02T00:36:38.859Z,14.64
2022-11-02T00:39:07.022Z,14.44
2022-11-02T00:41:35.242Z,15.20
2022-11-02T00:44:03.456Z,14.92
2022-11-02T00:46:31.620Z,15.37
2022-11-02T00:48:59.730Z,15.37
2022-11-02T00:51:27.874Z,15.14
2022-11-02T00:53:57.459Z,14.54
2022-11-02T00:56:25.672Z,14.88
2022-11-02T00:58:53.985Z,14.74
2022-11-02T01:01:22.249Z,14.56
2022-11-02T01:03:50.495Z,15.09
2022-11-02T01:06:18.672Z,15.57
2022-11-02T01:08:46.834Z,15.04
2022-11-02T01:11:21.270Z,14.61
2022-11-02T01:13:52.167Z,14.74
2022-11-02T01:16:21.160Z,14.95
2022-11-02T01:18:53.999Z,14.92
2022-11-02T01:21:22.795Z,15.19
2022-11-02T01:23:51.151Z,14.63
2022-11-02T01:26:20.953Z,14.74
2022-11-02T01:28:49.184Z,14.95
2022-11-02T01:31:17.401Z,15.03
2022-11-02T01:33:46.535Z,14.64
2022-11-02T01:36:16.642Z,15.09
2022-11-02T01:38:44.831Z,15.19
2022-11-02T01:41:14.070Z,14.92
2022-11-02T01:43:46.124Z,15.08
2022-11-02T01:46:20.523Z,15.62
2022-11-02T01:48:54.645Z,15.38
2022-11-02T01:51:27.999Z,15.83
2022-11-02T01:54:00.449Z,15.91
2022-11-02T01:56:34.009Z,15.06
2022-11-02T01:59:09.342Z,15.38
2022-11-02T02:01:37.654Z,16.11
2022-11-02T02:04:06.871Z,15.02
2022-11-02T02:06:35.525Z,14.58
2022-11-02T02:09:06.768Z,14.70
2022-11-02T02:11:37.585Z,15.02
2022-11-02T02:14:10.199Z,15.45
2022-11-02T02:17:18.371Z,15.59
2022-11-02T02:19:57.713Z,15.13
2022-11-02T02:23:20.555Z,15.00
2022-11-02T02:26:37.632Z,14.68
2022-11-02T02:29:12.431Z,14.89
2022-11-02T02:31:49.111Z,15.11
2022-11-02T02:34:21.809Z,15.70
2022-11-02T02:36:54.084Z,15.99
2022-11-02T02:39:31.272Z,16.36
2022-11-02T02:42:07.125Z,15.14
2022-11-02T02:44:40.925Z,14.70
2022-11-02T02:47:15.120Z,14.41
2022-11-02T02:50:00.253Z,15.01
2022-11-02T02:52:31.522Z,15.04
2022-11-02T02:55:02.070Z,15.38
2022-11-02T02:57:33.482Z,15.20
2022-11-02T03:00:05.055Z,15.42
2022-11-02T03:02:38.110Z,14.75
2022-11-02T03:05:26.316Z,14.84
2022-11-02T03:07:55.551Z,14.53
2022-11-02T03:10:33.671Z,15.19
2022-11-02T03:13:30.932Z,15.14
2022-11-02T03:16:11.293Z,15.03
2022-11-02T03:18:49.365Z,14.83
2022-11-02T03:21:29.143Z,14.77
2022-11-02T03:24:05.030Z,15.39
2022-11-02T03:26:40.564Z,15.31
2022-11-02T03:29:14.508Z,15.33
2022-11-02T03:31:51.670Z,15.62
2022-11-02T03:34:29.162Z,15.45
2022-11-02T03:39:47.130Z,14.81
2022-11-02T03:42:19.909Z,15.33
2022-11-02T03:44:51.859Z,15.03
2022-11-02T03:47:23.580Z,15.40
2022-11-02T03:49:53.620Z,15.35
2022-11-02T03:52:26.834Z,15.89
2022-11-02T03:55:04.825Z,14.95
2022-11-02T03:57:40.370Z,14.74
2022-11-02T04:00:11.644Z,15.52
2022-11-02T04:02:45.236Z,15.26
2022-11-02T04:05:13.524Z,15.01
2022-11-02T04:08:04.423Z,14.56
2022-11-02T04:10:32.912Z,15.88
2022-11-02T04:13:18.541Z,15.18
2022-11-02T04:15:46.983Z,15.20
2022-11-02T04:18:34.200Z,15.44
2022-11-02T04:21:02.363Z,14.52
2022-11-02T04:23:48.257Z,14.66
2022-11-02T04:26:16.442Z,14.92
2022-11-02T04:28:44.609Z,15.03
2022-11-02T04:31:13.146Z,15.46
2022-11-02T04:33:41.684Z,14.19
2022-11-02T04:36:10.771Z,14.67
2022-11-02T04:38:40.671Z,14.79
2022-11-02T04:41:27.869Z,14.49
2022-11-02T04:43:56.304Z,14.71
2022-11-02T04:46:27.093Z,15.33
2022-11-02T04:48:57.069Z,14.74
2022-11-02T04:51:27.806Z,14.96
2022-11-02T04:53:57.505Z,15.01
2022-11-02T04:56:26.528Z,15.62
2022-11-02T04:58:57.140Z,15.02
2022-11-02T05:01:27.477Z,14.56
2022-11-02T05:03:58.015Z,14.26
2022-11-02T05:06:26.880Z,14.48
2022-11-02T05:08:55.048Z,15.53
2022-11-02T05:11:23.481Z,15.13
2022-11-02T05:13:51.652Z,15.01
2022-11-02T05:16:19.870Z,15.01
2022-11-02T05:18:49.201Z,14.46
2022-11-02T05:21:18.736Z,15.29
2022-11-02T05:23:46.875Z,15.29
2022-11-02T05:26:15.071Z,14.82
2022-11-02T05:28:43.217Z,14.65
2022-11-02T05:31:11.399Z,14.56
2022-11-02T05:33:39.552Z,14.23
2022-11-02T05:36:08.316Z,14.92
2022-11-02T05:38:40.779Z,14.34
2022-11-02T05:41:10.122Z,15.00
2022-11-02T05:43:38.418Z,14.38
2022-11-02T05:46:06.779Z,14.55
2022-11-02T05:48:35.207Z,14.69
2022-11-02T05:51:05.282Z,13.82
2022-11-02T05:53:34.224Z,14.42
2022-11-02T05:56:06.003Z,14.87
2022-11-02T05:58:35.681Z,14.15
2022-11-02T06:01:06.927Z,14.56
2022-11-02T06:03:36.137Z,13.75
2022-11-02T06:06:07.428Z,14.24
2022-11-02T06:08:36.573Z,14.14
2022-11-02T06:11:11.650Z,14.78
2022-11-02T06:13:40.740Z,14.50
2022-11-02T06:16:12.139Z,13.73
2022-11-02T06:18:41.144Z,14.32
2022-11-02T06:21:09.637Z,14.46
2022-11-02T06:23:39.083Z,14.49
2022-11-02T06:26:08.627Z,14.47
2022-11-02T06:28:36.753Z,14.61
2022-11-02T06:31:05.046Z,14.85
2022-11-02T06:33:33.301Z,15.19
2022-11-02T06:36:01.651Z,15.05
2022-11-02T06:38:29.831Z,13.83
2022-11-02T06:41:00.246Z,13.87
2022-11-02T06:43:29.771Z,14.41
2022-11-02T06:45:59.263Z,13.96
2022-11-02T06:48:34.610Z,14.21
2022-11-02T06:51:04.410Z,14.83
2022-11-02T06:53:33.618Z,14.70
2022-11-02T06:56:01.877Z,14.72
2022-11-02T06:58:31.819Z,14.31
2022-11-02T07:01:02.136Z,13.63
2022-11-02T07:03:31.682Z,14.19
2022-11-02T07:06:00.935Z,14.27
2022-11-02T07:08:29.902Z,14.30
2022-11-02T07:10:58.817Z,14.19
2022-11-02T07:13:27.225Z,14.08
2022-11-02T07:15:57.009Z,14.19
2022-11-02T07:18:25.312Z,14.36
2022-11-02T07:20:53.505Z,13.84
2022-11-02T07:23:24.166Z,14.73
2022-11-02T07:25:52.998Z,13.87
2022-11-02T07:28:21.763Z,14.47
2022-11-02T07:30:50.200Z,14.30
2022-11-02T07:33:19.792Z,14.61
2022-11-02T07:35:48.030Z,14.64
2022-11-02T07:38:16.266Z,14.32
2022-11-02T07:40:44.462Z,14.17
2022-11-02T07:43:12.611Z,14.36
2022-11-02T07:45:40.839Z,13.59
2022-11-02T07:48:09.018Z,14.71
2022-11-02T07:50:38.581Z,14.91
2022-11-02T07:53:07.138Z,15.16
2022-11-02T07:55:35.759Z,14.78
2022-11-02T07:58:07.919Z,14.74
2022-11-02T08:00:38.896Z,14.50
2022-11-02T08:03:09.962Z,15.11
2022-11-02T08:05:42.776Z,14.60
2022-11-02T08:08:15.123Z,14.34
2022-11-02T08:10:44.916Z,14.82
2022-11-02T08:13:16.603Z,15.02
2022-11-02T08:15:44.898Z,15.41
2022-11-02T08:18:16.382Z,15.17
2022-11-02T08:20:47.384Z,15.47
2022-11-02T08:23:17.403Z,15.11
2022-11-02T08:25:49.715Z,15.39
2022-11-02T08:28:22.147Z,15.15
2022-11-02T08:30:50.429Z,15.09
2022-11-02T08:33:20.676Z,14.89
2022-11-02T08:35:50.869Z,14.46
2022-11-02T08:38:22.394Z,14.39
2022-11-02T08:40:50.885Z,14.28
2022-11-02T08:43:19.033Z,14.44
2022-11-02T08:46:13.685Z,14.78
2022-11-02T08:48:35.391Z,14.76
2022-11-02T08:51:05.672Z,14.81
2022-11-02T08:53:34.020Z,14.15
2022-11-02T08:56:02.285Z,14.32
2022-11-02T08:58:30.515Z,14.65
2022-11-02T09:00:58.754Z,15.09
2022-11-02T09:03:28.272Z,14.58
2022-11-02T09:06:02.515Z,14.50
2022-11-02T09:08:33.210Z,15.27
2022-11-02T09:11:04.418Z,15.23
2022-11-02T09:13:32.979Z,14.91
2022-11-02T09:16:02.719Z,14.27
2022-11-02T09:18:31.488Z,14.81
2022-11-02T09:21:03.415Z,15.50
2022-11-02T09:23:33.567Z,15.10
2022-11-02T09:26:01.834Z,15.21
2022-11-02T09:28:30.055Z,14.82
2022-11-02T09:30:58.385Z,14.48
2022-11-02T09:33:26.573Z,15.18
2022-11-02T09:35:54.947Z,16.21
2022-11-02T09:38:23.129Z,16.42
2022-11-02T09:41:09.799Z,14.91
2022-11-02T09:43:51.216Z,14.95
2022-11-02T09:46:25.169Z,15.40
2022-11-02T09:48:57.927Z,15.08
2022-11-02T09:51:30.659Z,15.35
2022-11-02T09:54:13.039Z,15.00
2022-11-02T09:56:47.564Z,15.75
2022-11-02T09:59:18.807Z,14.87
2022-11-02T10:02:02.448Z,14.91
2022-11-02T10:05:15.698Z,15.18
2022-11-02T10:08:15.597Z,16.17
2022-11-02T10:10:57.487Z,16.34
2022-11-02T10:13:37.691Z,16.27
2022-11-02T10:16:12.232Z,16.18
2022-11-02T10:18:43.072Z,14.96
2022-11-02T10:21:17.733Z,15.04
2022-11-02T10:23:52.861Z,15.22
2022-11-02T10:26:33.155Z,14.69
2022-11-02T10:29:17.111Z,15.21
2022-11-02T10:31:45.678Z,15.40
2022-11-02T10:34:24.750Z,15.16
2022-11-02T10:37:10.805Z,14.75
2022-11-02T10:39:49.024Z,15.14
2022-11-02T10:42:53.745Z,15.46
2022-11-02T10:45:57.879Z,15.80
2022-11-02T10:48:40.113Z,15.04
2022-11-02T10:51:12.369Z,15.85
2022-11-02T10:53:44.937Z,15.51
2022-11-02T10:56:18.849Z,14.98
2022-11-02T10:58:59.046Z,15.33
2022-11-02T11:01:27.920Z,15.02
2022-11-02T11:04:00.171Z,15.72
2022-11-02T11:06:32.453Z,15.74
2022-11-02T11:09:05.115Z,15.31
2022-11-02T11:11:36.983Z,15.55
2022-11-02T11:20:07.219Z,15.44
2022-11-02T11:22:39.967Z,15.40
2022-11-02T11:25:27.545Z,15.79
2022-11-02T11:27:58.132Z,15.33
2022-11-02T11:30:58.518Z,16.03
2022-11-02T11:33:23.048Z,15.54
2022-11-02T11:35:52.818Z,15.69
2022-11-02T11:38:24.506Z,15.47
2022-11-02T11:40:57.702Z,15.62
2022-11-02T11:43:28.436Z,15.12
2022-11-02T11:46:05.972Z,15.03
2022-11-02T11:48:40.088Z,15.35
2022-11-02T11:51:27.557Z,15.91
2022-11-02T11:54:26.384Z,15.38
2022-11-02T11:56:57.448Z,15.91
2022-11-02T11:59:29.679Z,16.09
2022-11-02T12:02:02.458Z,16.36
2022-11-02T12:04:34.949Z,15.57
2022-11-02T12:07:39.867Z,15.40
2022-11-02T12:10:17.958Z,15.61
2022-11-02T12:13:11.632Z,16.21
2022-11-02T12:15:58.602Z,15.87
2022-11-02T12:18:49.067Z,15.75
2022-11-02T12:21:39.935Z,15.49
2022-11-02T12:24:40.424Z,15.29
2022-11-02T12:27:25.351Z,15.91
2022-11-02T12:30:10.081Z,15.54
2022-11-02T12:33:15.163Z,15.45
2022-11-02T12:36:05.276Z,15.58
2022-11-02T12:38:52.272Z,15.67
2022-11-02T12:41:43.851Z,16.13
2022-11-02T12:44:29.121Z,16.05
2022-11-02T12:47:05.816Z,15.54
2022-11-02T12:49:43.075Z,15.81
2022-11-02T12:52:30.573Z,15.81
2022-11-02T12:55:02.924Z,15.67
2022-11-02T12:57:36.961Z,15.74
2022-11-02T13:00:09.726Z,15.65
2022-11-02T13:02:55.129Z,15.51
2022-11-02T13:05:28.648Z,15.53
2022-11-02T13:08:16.047Z,15.21
2022-11-02T13:10:53.353Z,16.02
2022-11-02T13:13:30.907Z,15.80
2022-11-02T13:16:00.820Z,16.00
2022-11-02T13:18:34.383Z,16.14
2022-11-02T13:21:05.411Z,16.10
2022-11-02T13:23:41.556Z,16.08
2022-11-02T13:26:22.410Z,15.80
2022-11-02T13:28:56.688Z,15.70
2022-11-02T13:31:34.821Z,16.19
2022-11-02T13:34:07.930Z,16.34
2022-11-02T13:36:39.238Z,16.31
2022-11-02T13:39:17.383Z,16.12
2022-11-02T13:42:25.692Z,16.72
2022-11-02T13:45:46.908Z,16.84
2022-11-02T13:48:51.810Z,16.49
2022-11-02T13:51:31.116Z,15.81
2022-11-02T13:54:04.071Z,15.68
2022-11-02T13:56:37.893Z,15.74
2022-11-02T13:59:10.192Z,16.09
2022-11-02T14:01:42.098Z,16.31
2022-11-02T14:04:13.749Z,16.76
2022-11-02T14:06:52.615Z,16.79
2022-11-02T14:09:28.995Z,16.83
2022-11-02T14:12:40.376Z,16.90
2022-11-02T14:15:53.516Z,16.18
2022-11-02T14:18:32.619Z,15.63
2022-11-02T14:21:21.923Z,16.16
2022-11-02T14:23:50.189Z,16.28
2022-11-02T14:26:53.528Z,16.35
2022-11-02T14:29:53.482Z,16.26
2022-11-02T14:32:49.727Z,16.12
2022-11-02T14:35:34.183Z,16.32
2022-11-02T14:38:45.136Z,16.36
2022-11-02T14:41:46.037Z,15.68
2022-11-02T14:44:50.205Z,15.70
2022-11-02T14:47:20.484Z,15.69
2022-11-02T14:49:54.638Z,16.07
2022-11-02T14:52:28.808Z,16.11
2022-11-02T14:55:20.584Z,16.15
2022-11-02T14:57:55.249Z,16.09
2022-11-02T15:00:28.919Z,16.24
2022-11-02T15:02:59.645Z,16.37
2022-11-02T15:05:32.430Z,16.31
2022-11-02T15:08:04.021Z,15.93
2022-11-02T15:10:47.188Z,16.11
2022-11-02T15:13:48.615Z,16.18
2022-11-02T15:16:26.667Z,16.65
2022-11-02T15:19:16.201Z,16.63
2022-11-02T15:21:46.161Z,16.08
2022-11-02T15:24:29.581Z,16.51
2022-11-02T15:27:00.578Z,16.66
2022-11-02T15:29:44.929Z,16.29
2022-11-02T15:32:22.644Z,16.68
2022-11-02T15:34:54.363Z,16.52
2022-11-02T15:37:26.534Z,16.57
2022-11-02T15:39:57.336Z,17.08
2022-11-02T15:42:39.401Z,16.91
2022-11-02T15:45:50.518Z,17.17
2022-11-02T15:48:40.054Z,17.00
2022-11-02T15:51:21.860Z,17.00
2022-11-02T15:54:10.605Z,17.09
2022-11-02T15:56:52.932Z,17.05
2022-11-02T15:59:46.722Z,16.63
2022-11-02T16:02:27.951Z,17.05
2022-11-02T16:05:00.188Z,17.09
2022-11-02T16:07:38.405Z,17.08
2022-11-02T16:10:26.726Z,17.03
2022-11-02T16:12:59.701Z,17.02
2022-11-02T16:15:28.746Z,17.09
2022-11-02T16:17:58.402Z,17.16
2022-11-02T16:20:29.669Z,17.09
2022-11-02T16:23:00.991Z,17.16
2022-11-02T16:25:39.924Z,17.12
2022-11-02T16:28:19.833Z,17.16
2022-11-02T16:31:12.513Z,16.98
2022-11-02T16:33:45.430Z,16.93
2022-11-02T16:36:17.643Z,16.93
2022-11-02T16:38:53.446Z,16.96
2022-11-02T16:41:25.664Z,16.78
2022-11-02T16:43:54.327Z,16.38
2022-11-02T16:46:31.870Z,16.64
2022-11-02T16:49:16.072Z,16.83
2022-11-02T16:51:51.667Z,16.88
2022-11-02T16:54:41.241Z,17.00
2022-11-02T16:57:20.056Z,17.13
2022-11-02T16:59:52.951Z,16.98
2022-11-02T17:02:37.658Z,16.93
2022-11-02T17:05:15.426Z,16.77
2022-11-02T17:07:48.244Z,16.80
2022-11-02T17:10:22.520Z,16.63
2022-11-02T17:12:52.582Z,16.92
2022-11-02T17:15:24.234Z,17.09
2022-11-02T17:18:24.614Z,16.69
2022-11-02T17:21:28.295Z,16.74
2022-11-02T17:23:59.399Z,16.77
2022-11-02T17:26:37.577Z,16.77
2022-11-02T17:29:35.207Z,16.65
2022-11-02T17:32:05.337Z,16.35
2022-11-02T17:34:35.698Z,16.45
2022-11-02T17:37:04.030Z,16.03
2022-11-02T17:39:34.629Z,16.44
2022-11-02T17:42:20.480Z,16.39
2022-11-02T17:44:50.079Z,15.32
2022-11-02T17:47:20.561Z,15.20
2022-11-02T17:49:48.759Z,15.62
2022-11-02T17:52:17.380Z,15.99
2022-11-02T17:54:45.560Z,15.39
2022-11-02T17:57:15.848Z,14.76
2022-11-02T17:59:44.259Z,15.19
2022-11-02T18:02:16.017Z,15.22
2022-11-02T18:04:44.682Z,15.37
2022-11-02T18:07:13.016Z,15.34
2022-11-02T18:09:41.333Z,15.36
2022-11-02T18:12:13.294Z,14.84
2022-11-02T18:14:41.480Z,14.78
2022-11-02T18:17:09.961Z,14.19
2022-11-02T18:19:39.495Z,14.68
2022-11-02T18:22:07.677Z,14.72
2022-11-02T18:24:35.866Z,14.94
2022-11-02T18:27:04.160Z,14.97
2022-11-02T18:29:32.338Z,14.64
2022-11-02T18:32:00.494Z,14.94
2022-11-02T18:34:28.671Z,14.99
2022-11-02T18:36:58.203Z,14.51
2022-11-02T18:39:26.419Z,14.70
2022-11-02T18:41:54.590Z,14.58
2022-11-02T18:44:22.889Z,15.15
2022-11-02T18:46:51.055Z,15.14
2022-11-02T18:49:19.269Z,15.61
2022-11-02T18:51:47.697Z,14.39
2022-11-02T18:54:17.935Z,15.38
2022-11-02T18:56:46.519Z,14.99
2022-11-02T18:59:14.816Z,15.16
2022-11-02T19:01:43.106Z,15.98
2022-11-02T19:04:17.216Z,15.70
2022-11-02T19:07:03.910Z,15.78
2022-11-02T19:09:33.574Z,15.65
2022-11-02T19:12:08.751Z,15.15
2022-11-02T19:14:39.837Z,16.02
2022-11-02T19:17:10.065Z,16.18
2022-11-02T19:19:40.809Z,15.49
2022-11-02T19:22:11.014Z,15.56
2022-11-02T19:24:40.864Z,14.71
2022-11-02T19:27:13.079Z,14.42
2022-11-02T19:29:41.305Z,14.56
2022-11-02T19:32:10.097Z,14.51
2022-11-02T19:34:38.764Z,14.24
2022-11-02T19:37:08.941Z,14.16
2022-11-02T19:39:37.524Z,14.55
2022-11-02T19:42:07.768Z,14.11
2022-11-02T19:44:41.288Z,14.09
2022-11-02T19:47:11.071Z,14.37
2022-11-02T19:49:39.412Z,14.66
2022-11-02T19:52:07.633Z,15.00
2022-11-02T19:54:35.790Z,13.91
2022-11-02T19:57:03.999Z,14.14
2022-11-02T19:59:34.088Z,13.54
2022-11-02T20:02:02.353Z,12.72
2022-11-02T20:04:30.572Z,13.75
2022-11-02T20:06:59.535Z,13.96
2022-11-02T20:09:27.738Z,13.97
2022-11-02T20:11:55.927Z,13.56
2022-11-02T20:14:24.409Z,13.66
2022-11-02T20:17:04.508Z,13.49
2022-11-02T20:19:42.581Z,14.07
2022-11-02T20:22:10.784Z,13.71
2022-11-02T20:24:38.982Z,14.00
2022-11-02T20:27:08.108Z,14.30
2022-11-02T20:29:36.289Z,14.05
2022-11-02T20:32:10.143Z,13.84
2022-11-02T20:34:38.376Z,14.38
2022-11-02T20:37:07.484Z,14.30
2022-11-02T20:39:35.686Z,14.54
2022-11-02T20:42:03.917Z,14.23
2022-11-02T20:44:32.086Z,13.65
2022-11-02T20:47:00.248Z,14.16
2022-11-02T20:49:49.263Z,14.23
2022-11-02T20:52:18.666Z,14.06
2022-11-02T20:54:46.838Z,13.71
2022-11-02T20:57:15.040Z,14.25
2022-11-02T20:59:43.200Z,13.35
2022-11-02T21:02:12.427Z,14.08
2022-11-02T21:04:42.119Z,13.12
2022-11-02T21:07:10.366Z,13.24
2022-11-02T21:09:38.539Z,13.19
2022-11-02T21:12:33.227Z,13.94
2022-11-02T21:15:02.329Z,13.30
2022-11-02T21:17:30.516Z,13.72
2022-11-02T21:20:14.120Z,13.64
2022-11-02T21:22:51.192Z,14.57
2022-11-02T21:25:19.495Z,14.41
2022-11-02T21:27:50.859Z,13.41
2022-11-02T21:30:19.514Z,13.02
2022-11-02T21:32:47.737Z,13.93
2022-11-02T21:35:17.466Z,13.41
2022-11-02T21:37:45.665Z,13.78
2022-11-02T21:40:14.996Z,13.43
2022-11-02T21:42:43.190Z,13.16
2022-11-02T21:45:16.518Z,13.59
2022-11-02T21:47:46.234Z,13.30
2022-11-02T21:50:15.865Z,13.19
2022-11-02T21:52:45.274Z,13.63
2022-11-02T21:55:13.631Z,13.03
2022-11-02T21:57:41.788Z,13.59
2022-11-02T22:00:11.614Z,13.60
2022-11-02T22:02:38.849Z,12.86
2022-11-02T22:05:07.769Z,13.39
2022-11-02T22:07:57.291Z,13.86
2022-11-02T22:10:25.471Z,14.20
2022-11-02T22:13:07.779Z,14.95
2022-11-02T22:15:38.398Z,13.72
2022-11-02T22:18:06.910Z,13.88
2022-11-02T22:20:35.082Z,13.96
2022-11-02T22:23:05.002Z,13.52
2022-11-02T22:25:33.385Z,13.01
2022-11-02T22:28:01.594Z,13.49
2022-11-02T22:30:29.900Z,12.81
2022-11-02T22:32:58.099Z,12.88
2022-11-02T22:35:26.232Z,12.29
2022-11-02T22:38:12.109Z,13.13
2022-11-02T22:40:41.679Z,13.24
2022-11-02T22:43:11.083Z,12.90
2022-11-02T22:45:39.217Z,12.71
2022-11-02T22:48:07.682Z,13.38
2022-11-02T22:50:35.912Z,13.29
2022-11-02T22:53:04.524Z,12.71
2022-11-02T22:55:32.880Z,13.02
2022-11-02T22:58:02.419Z,13.43
2022-11-02T23:00:30.597Z,13.53
2022-11-02T23:02:58.825Z,13.79
2022-11-02T23:05:27.007Z,13.41
2022-11-02T23:07:55.218Z,13.08
2022-11-02T23:10:48.147Z,12.72
2022-11-02T23:13:20.103Z,12.31
2022-11-02T23:15:48.272Z,12.45
2022-11-02T23:18:16.527Z,13.54
2022-11-02T23:20:51.442Z,12.95
2022-11-02T23:23:36.981Z,12.61
2022-11-02T23:26:05.247Z,12.93
2022-11-02T23:28:52.157Z,13.13
2022-11-02T23:31:38.016Z,12.68
2022-11-02T23:34:06.230Z,12.59
2022-11-02T23:36:33.757Z,12.23
2022-11-02T23:39:19.400Z,12.57
2022-11-02T23:41:47.575Z,12.60
2022-11-02T23:44:19.019Z,12.80
2022-11-02T23:46:49.533Z,13.57
2022-11-02T23:49:19.329Z,13.71
2022-11-02T23:52:05.230Z,13.55
2022-11-02T23:54:51.087Z,12.60
2022-11-02T23:57:21.002Z,12.33
2022-11-02T23:59:51.055Z,12.38
